Etusivu
METAR-TAF:

METAR-TAF

Lentoasemat :

Teheran, Iran

Leveyspiiri: 35-41N, Pituuspiiri: 051-21E, korkeus merenpinnasta: 1204 m

Tämänhetkinen sää

Tämä raportti tehtiin 9 minuuttia sitten, kello 05.00 UTC
Tuuli 6 kn etelästä/kaakosta
Lämpötila 32°C
Kosteus 15%
Ilmanpaine 1015 hPa
Näkyvyys 10 km tai enemmän
ei pilviä alle 1500 m:ssä eikä cumulonimbus-pilviä

METAR: OIII 170500Z 15006KT CAVOK 32/02 Q1015 A2998

Aika: 09:39 (05:09 UTC)

Sääennuste

Tämä raportti tehtiin 6 tuntia ja 9 minuuttia sitten, kello 23.00 UTC
Ennuste voimassa 17. päivästä klo 00 UTC - 18. päivään klo 06 UTC
Tuuli 6 kn koillisesta
Näkyvyys 10 km tai enemmän
ei pilviä alle 1500 m:ssä eikä cumulonimbus-pilviä
Ajoittain
17. päivästä klo 07 UTC - 17. päivään klo 12 UTC
Tuuli 12 kn etelästä/kaakosta

TAF: OIII 162300Z 1700/1806 04003MPS CAVOK TEMPO 1707/1712 15006MPS

Säähavainnot ja -ennusteet yli 4000 lentoasemalta (METAR- ja TAF-raportit).

Käytössä olevat sääasemat on merkitty karttaan keltaisilla ja punaisilla pisteillä.

Aseta hiiri pisteen päälle nähdäksesi sääaseman nimen.

Klikkaa sitten nähdäksesi säähavainnot ja -ennusteet.

Kartan vaihtaminen: klikkaa mustalla rastilla varustettuja vihreitä pisteitä, niin voit zoomata sisään; viivalla varustettua vihreää pistettä, niin voit zoomata ulos tai vihreitä nuolia, niin pääset viereisille kartoille.


METAR-TAF: